Time;durP1;ratioP1;P1;durP2;ratioP2;P2;SDS_P1;SDS_P2;PMS_P1;PMS_P2;Temp;Humidity;BMP_temperature;BMP_pressure;BME280_temperature;BME280_humidity;BME280_pressure;Samples;Min_cycle;Max_cycle;Signal;HPM_P1;HPM_P2
2022/08/12 00:44:54;;;;;;;1.57;0.70;;;19.70;66.90;;;;;;5117394;28;20419;-79
2022/08/12 00:47:21;;;;;;;1.07;0.97;;;19.70;67.10;;;;;;5116853;28;20475;-79
2022/08/12 00:49:49;;;;;;;0.50;0.50;;;19.70;67.00;;;;;;5116744;28;20972;-79
2022/08/12 00:52:18;;;;;;;0.80;0.80;;;19.70;67.00;;;;;;5117135;28;20435;-80
2022/08/12 00:54:48;;;;;;;1.07;0.70;;;19.70;67.00;;;;;;5116849;28;20435;-80
2022/08/12 00:57:17;;;;;;;1.63;0.77;;;19.70;67.30;;;;;;5117541;28;20852;-80
2022/08/12 00:59:46;;;;;;;0.93;0.87;;;19.70;67.40;;;;;;5118388;28;20443;-80
2022/08/12 01:02:23;;;;;;;0.60;0.60;;;19.60;67.20;;;;;;5116950;28;20442;-80
2022/08/12 01:13:14;;;;;;;0.67;0.67;;;19.50;68.80;;;;;;5116710;28;20906;-81
2022/08/12 01:15:41;;;;;;;0.70;0.63;;;19.50;68.80;;;;;;5116275;28;20926;-81
2022/08/12 01:18:08;;;;;;;1.07;0.97;;;19.40;69.20;;;;;;5116237;28;20443;-81
2022/08/12 01:20:39;;;;;;;0.70;0.70;;;19.40;69.30;;;;;;5116133;28;20477;-81
2022/08/12 01:23:48;;;;;;;0.73;0.53;;;19.30;69.70;;;;;;5116493;28;20427;-81
2022/08/12 01:26:19;;;;;;;1.73;1.37;;;19.30;69.80;;;;;;5106965;28;20838;-81
2022/08/12 01:28:49;;;;;;;0.70;0.70;;;19.30;70.10;;;;;;5116098;28;20902;-81
2022/08/12 01:31:17;;;;;;;2.53;1.10;;;19.30;70.20;;;;;;5115908;28;20969;-81
2022/08/12 01:33:50;;;;;;;0.60;0.60;;;19.30;70.30;;;;;;5116300;28;20446;-80
2022/08/12 01:36:21;;;;;;;0.57;0.57;;;19.30;70.80;;;;;;5116367;28;20419;-80
2022/08/12 01:38:50;;;;;;;1.70;0.80;;;19.30;70.60;;;;;;5116300;28;20427;-80
2022/08/12 01:41:24;;;;;;;0.50;0.50;;;19.20;71.10;;;;;;5116277;28;20469;-80
2022/08/12 01:43:52;;;;;;;0.80;0.50;;;19.20;71.10;;;;;;5116257;28;20840;-79
2022/08/12 01:46:29;;;;;;;2.03;0.60;;;19.10;71.00;;;;;;5115961;28;20478;-81
2022/08/12 01:49:05;;;;;;;1.47;1.27;;;19.10;71.50;;;;;;5116019;28;20431;-81
2022/08/12 01:51:39;;;;;;;0.40;0.40;;;19.10;71.90;;;;;;5115844;28;20473;-82
2022/08/12 01:54:09;;;;;;;1.43;0.60;;;19.10;72.00;;;;;;5115925;28;20437;-81
2022/08/12 01:56:47;;;;;;;0.63;0.63;;;19.10;72.40;;;;;;5115835;28;20530;-81
2022/08/12 02:02:04;;;;;;;1.00;0.80;;;19.10;73.70;;;;;;5115690;28;20485;-81
2022/08/12 02:13:23;;;;;;;0.70;0.60;;;19.00;74.10;;;;;;5115543;28;20418;-82
2022/08/12 02:15:56;;;;;;;0.70;0.70;;;18.90;73.70;;;;;;5115192;28;20430;-81
2022/08/12 02:18:33;;;;;;;1.00;1.00;;;18.90;74.00;;;;;;5115425;28;20430;-81
2022/08/12 02:21:04;;;;;;;1.37;0.83;;;18.90;75.20;;;;;;5114978;28;20974;-81
2022/08/12 02:23:33;;;;;;;0.73;0.73;;;19.00;75.30;;;;;;5115352;28;20841;-80
2022/08/12 02:26:05;;;;;;;1.43;0.73;;;18.90;75.60;;;;;;5115132;28;20815;-80
2022/08/12 02:28:34;;;;;;;1.07;0.50;;;18.90;75.60;;;;;;5114959;28;20975;-79
2022/08/12 02:31:04;;;;;;;1.27;0.60;;;18.80;76.00;;;;;;5114722;28;20974;-79
2022/08/12 02:33:32;;;;;;;0.50;0.50;;;18.80;76.50;;;;;;5114760;28;20910;-79
2022/08/12 02:36:00;;;;;;;1.10;0.70;;;18.70;75.20;;;;;;5114836;27;20454;-79
2022/08/12 02:38:29;;;;;;;1.13;0.73;;;18.70;75.00;;;;;;5114758;28;20440;-79
2022/08/12 02:40:58;;;;;;;2.50;0.70;;;18.70;75.10;;;;;;5114900;28;20490;-79
2022/08/12 02:43:33;;;;;;;1.00;0.90;;;18.70;76.30;;;;;;5114924;28;20442;-79
2022/08/12 02:46:07;;;;;;;0.70;0.60;;;18.60;75.00;;;;;;5114948;28;20426;-79
2022/08/12 02:48:40;;;;;;;1.00;0.60;;;18.60;74.90;;;;;;5114545;28;20521;-79
2022/08/12 02:51:11;;;;;;;0.73;0.70;;;18.60;75.30;;;;;;5114749;28;20459;-79
2022/08/12 02:53:39;;;;;;;0.63;0.63;;;18.60;75.10;;;;;;5114707;28;20446;-79
2022/08/12 02:56:06;;;;;;;0.90;0.70;;;18.60;76.00;;;;;;5114436;28;20428;-78
2022/08/12 02:58:35;;;;;;;0.70;0.60;;;18.50;75.00;;;;;;5114639;28;20873;-79
2022/08/12 03:01:08;;;;;;;1.60;1.10;;;18.50;75.30;;;;;;5114500;27;20470;-79
2022/08/12 03:03:36;;;;;;;0.63;0.63;;;18.50;76.20;;;;;;5114247;28;20910;-78
2022/08/12 03:06:06;;;;;;;1.90;0.80;;;18.50;75.70;;;;;;5114483;28;20439;-79
2022/08/12 03:08:39;;;;;;;1.33;0.67;;;18.50;76.40;;;;;;5114439;28;20849;-79
2022/08/12 03:11:13;;;;;;;1.03;0.90;;;18.50;76.30;;;;;;5113821;28;20518;-79
2022/08/12 03:13:42;;;;;;;0.80;0.80;;;18.60;76.50;;;;;;5114382;28;20431;-79
2022/08/12 03:16:13;;;;;;;1.27;0.70;;;18.60;77.00;;;;;;5114282;28;20439;-78
2022/08/12 03:18:41;;;;;;;0.50;0.50;;;18.50;77.70;;;;;;5114235;28;20783;-79
2022/08/12 03:21:10;;;;;;;1.50;0.60;;;18.50;76.60;;;;;;5114199;28;20520;-79
2022/08/12 03:23:40;;;;;;;0.80;0.80;;;18.40;77.20;;;;;;5114143;28;20787;-79
2022/08/12 03:26:08;;;;;;;0.70;0.60;;;18.40;76.70;;;;;;5114173;28;20482;-79
2022/08/12 03:28:52;;;;;;;0.90;0.90;;;18.30;77.80;;;;;;5114231;28;20826;-78
2022/08/12 03:31:23;;;;;;;1.83;0.97;;;18.30;78.20;;;;;;5113892;28;20814;-79
2022/08/12 03:33:51;;;;;;;2.93;0.50;;;18.30;78.50;;;;;;5114219;28;20434;-80
2022/08/12 03:36:20;;;;;;;0.50;0.47;;;18.30;79.40;;;;;;5114006;28;20450;-81
2022/08/12 03:39:14;;;;;;;0.90;0.70;;;18.20;79.00;;;;;;5113995;28;20545;-80
2022/08/12 03:41:40;;;;;;;0.80;0.63;;;18.10;79.80;;;;;;5113553;28;20546;-80
2022/08/12 04:00:51;;;;;;;0.50;0.50;;;17.60;80.70;;;;;;5113578;28;20500;-79
2022/08/12 04:06:05;;;;;;;2.10;0.87;;;17.40;81.70;;;;;;5113760;28;20761;-79
2022/08/12 04:08:32;;;;;;;0.73;0.73;;;17.30;82.40;;;;;;5113602;28;20815;-79
2022/08/12 04:13:47;;;;;;;0.50;0.50;;;17.30;82.40;;;;;;5113740;28;20756;-78
2022/08/12 04:16:15;;;;;;;0.67;0.67;;;17.20;82.10;;;;;;5113690;28;20453;-79
2022/08/12 04:18:44;;;;;;;0.80;0.80;;;17.10;82.40;;;;;;5113263;28;20454;-79
2022/08/12 04:21:11;;;;;;;0.70;0.70;;;17.10;82.80;;;;;;5113538;28;20791;-79
2022/08/12 04:23:41;;;;;;;1.43;0.70;;;17.10;82.60;;;;;;5113562;28;20449;-79
2022/08/12 04:26:07;;;;;;;0.60;0.60;;;17.00;82.50;;;;;;5114128;28;20474;-80
2022/08/12 04:28:34;;;;;;;0.70;0.70;;;17.00;83.10;;;;;;5113160;28;20478;-80
2022/08/12 04:31:01;;;;;;;0.90;0.90;;;17.00;83.50;;;;;;5113438;28;20467;-79
2022/08/12 04:33:28;;;;;;;0.90;0.67;;;17.00;83.80;;;;;;5113460;28;20815;-79
2022/08/12 04:35:56;;;;;;;0.60;0.60;;;17.00;83.80;;;;;;5113422;28;20451;-79
2022/08/12 04:38:25;;;;;;;0.80;0.60;;;16.90;83.90;;;;;;5113377;28;20446;-79
2022/08/12 04:40:52;;;;;;;1.03;0.80;;;16.90;84.10;;;;;;5113359;28;20482;-79
2022/08/12 04:43:19;;;;;;;1.37;0.90;;;16.90;84.40;;;;;;5113394;28;20567;-79
2022/08/12 04:45:48;;;;;;;0.97;0.60;;;17.00;84.90;;;;;;5113338;28;20439;-79
2022/08/12 04:48:15;;;;;;;2.50;0.60;;;17.00;85.40;;;;;;5113261;28;20478;-79
2022/08/12 04:50:44;;;;;;;1.00;0.70;;;17.00;86.70;;;;;;5113282;28;20462;-79
2022/08/12 04:53:12;;;;;;;0.53;0.50;;;17.00;86.40;;;;;;5112957;28;20450;-79
2022/08/12 04:55:41;;;;;;;0.60;0.60;;;17.10;86.50;;;;;;5112947;28;21018;-79
2022/08/12 04:58:08;;;;;;;2.47;0.97;;;17.10;86.60;;;;;;5113211;28;20856;-79
2022/08/12 05:00:36;;;;;;;0.60;0.60;;;17.10;86.50;;;;;;5114854;28;20466;-79
2022/08/12 05:03:04;;;;;;;0.70;0.60;;;17.10;86.50;;;;;;5116888;28;20470;-79
2022/08/12 05:05:32;;;;;;;1.70;0.70;;;17.20;86.70;;;;;;5116837;28;20455;-79
2022/08/12 05:07:59;;;;;;;0.60;0.60;;;17.20;86.10;;;;;;5116691;28;20482;-79
2022/08/12 05:10:27;;;;;;;1.23;0.63;;;17.20;85.90;;;;;;5116388;28;20478;-79
2022/08/12 05:12:56;;;;;;;0.70;0.50;;;17.20;86.10;;;;;;5116708;28;20439;-79
2022/08/12 05:15:23;;;;;;;0.60;0.60;;;17.20;86.40;;;;;;5116642;28;20439;-79
2022/08/12 05:17:51;;;;;;;0.80;0.80;;;17.20;86.50;;;;;;5116575;27;20450;-79
2022/08/12 05:20:20;;;;;;;1.20;0.70;;;17.20;86.30;;;;;;5116459;27;20812;-79
2022/08/12 05:22:49;;;;;;;2.17;0.80;;;17.30;86.50;;;;;;5116501;28;20539;-79
2022/08/12 05:25:16;;;;;;;2.07;1.10;;;17.30;86.00;;;;;;5116461;28;20447;-79
2022/08/12 05:27:44;;;;;;;0.87;0.70;;;17.20;85.60;;;;;;5116301;28;20489;-79
2022/08/12 05:30:12;;;;;;;0.80;0.80;;;17.30;85.80;;;;;;5116246;28;20463;-79
2022/08/12 05:32:39;;;;;;;0.67;0.60;;;17.20;86.00;;;;;;5116305;28;20451;-79
2022/08/12 05:35:06;;;;;;;0.70;0.70;;;17.30;86.00;;;;;;5116270;28;20462;-79
2022/08/12 05:37:34;;;;;;;1.10;0.63;;;17.30;85.70;;;;;;5116216;28;20441;-79
2022/08/12 05:40:01;;;;;;;0.60;0.50;;;17.30;86.50;;;;;;5116087;28;20511;-79
2022/08/12 05:42:28;;;;;;;1.67;0.50;;;17.30;87.10;;;;;;5115799;28;20461;-79
2022/08/12 05:44:56;;;;;;;0.80;0.50;;;17.30;87.10;;;;;;5116065;28;20458;-79
2022/08/12 05:47:23;;;;;;;0.50;0.50;;;17.30;87.10;;;;;;5115575;28;20835;-79
2022/08/12 05:49:49;;;;;;;1.77;1.00;;;17.40;87.00;;;;;;5115921;28;20447;-79
2022/08/12 05:52:16;;;;;;;0.80;0.60;;;17.40;87.30;;;;;;5115933;28;20458;-79
2022/08/12 05:54:44;;;;;;;1.43;0.87;;;17.50;86.00;;;;;;5115880;28;20446;-79
2022/08/12 05:57:11;;;;;;;0.60;0.60;;;17.60;86.80;;;;;;5115799;28;20443;-79
2022/08/12 05:59:38;;;;;;;0.80;0.70;;;17.80;85.70;;;;;;5115769;28;20435;-79
2022/08/12 06:02:10;;;;;;;1.03;0.70;;;17.90;85.60;;;;;;5115643;28;20463;-79
2022/08/12 06:04:38;;;;;;;1.27;1.10;;;18.10;85.00;;;;;;5115727;28;20436;-79
2022/08/12 06:07:06;;;;;;;0.80;0.80;;;18.40;84.00;;;;;;5115571;28;20442;-79
2022/08/12 06:09:33;;;;;;;1.13;0.83;;;18.60;82.80;;;;;;5115536;28;20458;-79
2022/08/12 06:12:00;;;;;;;1.00;0.70;;;18.80;81.90;;;;;;5114508;28;20479;-79
2022/08/12 06:14:27;;;;;;;0.70;0.70;;;19.00;82.10;;;;;;5115527;28;20447;-79
2022/08/12 06:16:53;;;;;;;1.50;0.90;;;19.30;80.30;;;;;;5115418;28;20447;-79
2022/08/12 06:19:21;;;;;;;1.47;0.60;;;19.50;79.20;;;;;;5115430;28;20447;-79
2022/08/12 06:21:50;;;;;;;1.43;0.60;;;19.70;79.90;;;;;;5115339;28;20463;-79
2022/08/12 06:24:23;;;;;;;0.63;0.63;;;19.90;79.80;;;;;;5115754;28;20831;-79
2022/08/12 06:26:49;;;;;;;1.00;0.90;;;20.10;79.40;;;;;;5095166;28;20494;-79
2022/08/12 06:29:18;;;;;;;0.73;0.70;;;20.30;79.40;;;;;;5094802;28;20479;-79
2022/08/12 06:31:49;;;;;;;0.77;0.70;;;20.60;76.70;;;;;;5094806;28;20464;-79
2022/08/12 06:34:16;;;;;;;0.80;0.80;;;20.80;77.10;;;;;;5094799;28;20432;-79
2022/08/12 06:36:44;;;;;;;1.00;0.80;;;20.90;76.20;;;;;;5094701;28;20443;-79
2022/08/12 06:39:12;;;;;;;1.07;0.70;;;21.10;76.10;;;;;;5094685;28;20864;-79
2022/08/12 06:44:23;;;;;;;0.80;0.80;;;21.40;74.70;;;;;;5094545;28;20426;-79
2022/08/12 06:46:51;;;;;;;1.20;0.80;;;21.60;74.20;;;;;;5094534;28;20447;-79
2022/08/12 06:49:17;;;;;;;1.10;1.00;;;21.70;74.40;;;;;;5094081;28;20475;-79
2022/08/12 06:51:45;;;;;;;1.13;0.83;;;21.80;73.40;;;;;;5094048;28;21000;-80
2022/08/12 06:54:12;;;;;;;1.00;0.80;;;22.00;73.20;;;;;;5094079;28;20935;-80
2022/08/12 06:56:39;;;;;;;0.77;0.70;;;22.00;71.90;;;;;;5094356;28;20513;-80
2022/08/12 06:59:06;;;;;;;0.70;0.70;;;22.20;70.90;;;;;;5093990;28;20939;-80
2022/08/12 07:01:32;;;;;;;0.97;0.97;;;22.30;70.20;;;;;;5094133;28;20475;-80
2022/08/12 07:03:59;;;;;;;1.60;0.70;;;22.40;70.40;;;;;;5094290;28;20428;-80
2022/08/12 07:06:26;;;;;;;0.80;0.63;;;22.60;70.20;;;;;;5094139;28;20443;-80
2022/08/12 07:08:54;;;;;;;0.83;0.60;;;22.70;69.60;;;;;;5094055;28;20475;-81
2022/08/12 07:11:21;;;;;;;0.77;0.77;;;22.90;69.60;;;;;;5093644;28;20483;-80
2022/08/12 07:13:51;;;;;;;1.07;0.60;;;23.00;68.20;;;;;;5094055;28;20456;-81
2022/08/12 07:16:20;;;;;;;0.60;0.60;;;23.00;68.30;;;;;;5094049;28;20431;-80
2022/08/12 07:18:50;;;;;;;1.13;0.97;;;23.00;67.90;;;;;;5093999;28;20446;-80
2022/08/12 07:21:18;;;;;;;0.60;0.60;;;23.10;68.00;;;;;;5093869;28;20589;-80
2022/08/12 07:23:45;;;;;;;0.50;0.50;;;23.30;67.50;;;;;;5093851;28;20533;-80
2022/08/12 07:26:15;;;;;;;0.80;0.60;;;23.40;67.20;;;;;;5093836;28;20451;-80
2022/08/12 07:28:43;;;;;;;0.63;0.63;;;23.50;68.00;;;;;;5093764;28;20467;-80
2022/08/12 07:31:11;;;;;;;1.90;1.00;;;23.60;68.60;;;;;;5093718;28;20221;-80
2022/08/12 07:33:40;;;;;;;3.70;0.80;;;23.80;66.90;;;;;;5093463;28;20208;-81
2022/08/12 07:36:09;;;;;;;0.50;0.50;;;24.00;66.70;;;;;;5093710;28;20208;-80
2022/08/12 07:38:38;;;;;;;0.70;0.70;;;24.00;65.50;;;;;;5093664;28;20231;-80
2022/08/12 07:41:10;;;;;;;0.93;0.87;;;24.10;65.50;;;;;;5093592;28;20247;-80
2022/08/12 07:43:41;;;;;;;0.70;0.60;;;24.20;65.60;;;;;;5093301;28;20664;-80
2022/08/12 07:46:10;;;;;;;0.82;0.80;;;24.40;65.60;;;;;;5093302;28;20676;-80
2022/08/12 07:48:40;;;;;;;0.50;0.50;;;24.60;64.20;;;;;;5093499;28;20217;-80
2022/08/12 07:51:08;;;;;;;0.65;0.65;;;24.70;63.80;;;;;;5093468;28;20229;-81
2022/08/12 07:53:35;;;;;;;1.48;1.00;;;24.80;63.10;;;;;;5093877;28;20206;-80
2022/08/12 07:56:03;;;;;;;0.90;0.70;;;24.80;62.90;;;;;;5093193;28;20204;-80
2022/08/12 07:58:30;;;;;;;1.27;1.08;;;24.80;62.50;;;;;;5093495;28;20205;-80
2022/08/12 08:00:59;;;;;;;0.60;0.60;;;25.00;62.30;;;;;;5093350;28;20221;-80
2022/08/12 08:03:26;;;;;;;0.88;0.77;;;25.20;62.00;;;;;;5093068;28;20551;-80
2022/08/12 08:05:53;;;;;;;0.50;0.50;;;25.10;61.00;;;;;;5093093;28;20760;-80
2022/08/12 08:08:22;;;;;;;0.90;0.63;;;25.20;59.70;;;;;;5093389;28;20205;-79
2022/08/12 08:10:50;;;;;;;0.98;0.68;;;25.40;60.50;;;;;;5092817;28;20241;-80
2022/08/12 08:13:17;;;;;;;0.60;0.60;;;25.60;60.50;;;;;;5093418;28;20224;-80
2022/08/12 08:15:45;;;;;;;0.77;0.70;;;25.70;59.20;;;;;;5093296;28;20197;-79
2022/08/12 08:18:16;;;;;;;0.60;0.60;;;25.90;59.70;;;;;;5093351;28;20239;-80
2022/08/12 08:20:44;;;;;;;0.90;0.80;;;25.80;59.20;;;;;;5093187;28;20232;-80
2022/08/12 08:23:15;;;;;;;0.77;0.75;;;25.80;58.90;;;;;;5093227;28;20205;-79
2022/08/12 08:25:44;;;;;;;0.70;0.70;;;25.80;58.70;;;;;;5093246;28;20190;-80
2022/08/12 08:28:12;;;;;;;0.68;0.68;;;25.60;58.30;;;;;;5093138;28;20225;-79
2022/08/12 08:30:41;;;;;;;1.35;0.88;;;25.60;58.40;;;;;;5093087;28;20225;-80
2022/08/12 08:33:09;;;;;;;1.00;0.70;;;25.60;58.80;;;;;;5093161;28;20205;-79
2022/08/12 08:35:38;;;;;;;2.70;1.10;;;25.70;59.10;;;;;;5095021;28;20668;-80
2022/08/12 08:38:10;;;;;;;0.50;0.47;;;25.70;58.90;;;;;;5097226;28;20560;-80
2022/08/12 08:43:24;;;;;;;1.40;0.80;;;26.10;58.80;;;;;;5097005;28;20258;-80
2022/08/12 08:45:50;;;;;;;0.52;0.52;;;26.30;59.00;;;;;;5096880;28;20205;-80
2022/08/12 08:48:17;;;;;;;1.63;0.90;;;26.40;57.20;;;;;;5096753;28;20221;-80
2022/08/12 08:50:45;;;;;;;0.70;0.55;;;26.40;56.20;;;;;;5096721;28;20225;-80
2022/08/12 08:53:13;;;;;;;0.70;0.70;;;26.50;55.90;;;;;;5096694;28;20296;-79
2022/08/12 08:55:41;;;;;;;0.77;0.77;;;26.40;56.20;;;;;;5096654;28;20201;-80
2022/08/12 08:58:08;;;;;;;0.60;0.50;;;26.50;55.20;;;;;;5096648;28;20208;-80
2022/08/12 09:00:37;;;;;;;0.63;0.47;;;26.50;55.20;;;;;;5096182;28;20230;-80
2022/08/12 09:03:05;;;;;;;0.70;0.70;;;26.60;54.90;;;;;;5096572;28;20205;-80
2022/08/12 09:05:32;;;;;;;0.70;0.55;;;26.70;54.20;;;;;;5096493;28;20201;-79
2022/08/12 09:08:03;;;;;;;0.95;0.52;;;26.50;53.10;;;;;;5096223;28;20570;-79
2022/08/12 09:10:30;;;;;;;0.60;0.60;;;26.50;52.30;;;;;;5096001;28;20611;-79
2022/08/12 09:15:41;;;;;;;0.65;0.60;;;26.50;53.40;;;;;;5096393;28;20643;-79
2022/08/12 09:18:09;;;;;;;0.55;0.55;;;26.80;53.60;;;;;;5096279;28;20250;-79
2022/08/12 09:20:38;;;;;;;0.85;0.60;;;26.90;52.20;;;;;;5096167;28;20308;-79
2022/08/12 09:23:09;;;;;;;1.00;0.90;;;27.00;52.90;;;;;;5096138;28;20201;-79
2022/08/12 09:25:37;;;;;;;0.60;0.60;;;26.90;53.20;;;;;;5096143;28;20190;-80
2022/08/12 09:28:04;;;;;;;1.00;0.80;;;26.80;53.10;;;;;;5096049;28;20208;-80
2022/08/12 09:30:31;;;;;;;0.85;0.55;;;26.70;52.60;;;;;;5096455;28;20233;-80
2022/08/12 09:32:58;;;;;;;0.70;0.70;;;26.50;53.70;;;;;;5096038;28;20197;-80
2022/08/12 09:35:30;;;;;;;0.93;0.63;;;26.60;53.30;;;;;;5095923;28;20205;-79
2022/08/12 09:37:57;;;;;;;0.60;0.60;;;26.60;53.50;;;;;;5095902;28;20196;-79
2022/08/12 09:40:26;;;;;;;0.70;0.60;;;26.70;53.80;;;;;;5095789;28;20217;-79
2022/08/12 09:45:37;;;;;;;0.80;0.80;;;26.80;54.50;;;;;;5095498;28;20268;-79
2022/08/12 09:48:05;;;;;;;0.80;0.80;;;26.90;53.30;;;;;;5094544;28;20220;-79
2022/08/12 09:50:33;;;;;;;0.70;0.70;;;26.70;53.70;;;;;;5095477;28;20252;-79
2022/08/12 09:53:07;;;;;;;0.70;0.70;;;26.60;54.00;;;;;;5095623;28;20208;-79
2022/08/12 09:55:36;;;;;;;0.77;0.60;;;26.50;54.30;;;;;;5095222;28;20206;-79
2022/08/12 09:58:03;;;;;;;0.50;0.50;;;26.40;54.20;;;;;;5095465;28;20220;-79
2022/08/12 10:00:33;;;;;;;0.60;0.60;;;26.50;54.00;;;;;;5095399;28;20225;-78
2022/08/12 10:03:02;;;;;;;0.60;0.60;;;26.70;54.10;;;;;;5095189;28;20278;-79
2022/08/12 10:05:32;;;;;;;1.00;0.80;;;26.90;53.80;;;;;;5095087;28;20665;-79
2022/08/12 10:07:59;;;;;;;0.60;0.60;;;27.00;53.80;;;;;;5095311;28;20201;-79
2022/08/12 10:10:26;;;;;;;0.60;0.60;;;27.10;54.20;;;;;;5094653;28;20720;-79
2022/08/12 10:15:43;;;;;;;0.70;0.70;;;27.30;52.10;;;;;;5095253;28;20197;-78
2022/08/12 10:18:10;;;;;;;0.60;0.60;;;27.30;52.30;;;;;;5095093;28;20574;-79
2022/08/12 10:20:37;;;;;;;0.50;0.50;;;27.30;52.10;;;;;;5094946;28;20214;-79
2022/08/12 10:23:04;;;;;;;1.33;0.60;;;27.40;51.90;;;;;;5095010;28;20594;-79
2022/08/12 10:31:01;;;;;;;0.50;0.50;;;27.70;52.10;;;;;;5094757;28;20611;-79
2022/08/12 10:33:29;;;;;;;0.65;0.65;;;27.90;51.80;;;;;;5094845;28;20236;-78
2022/08/12 10:35:57;;;;;;;2.20;0.63;;;27.90;50.80;;;;;;5094760;28;20296;-79
2022/08/12 10:38:24;;;;;;;0.55;0.50;;;28.00;51.70;;;;;;5094383;28;20296;-79
2022/08/12 10:43:42;;;;;;;1.08;0.60;;;28.50;50.20;;;;;;5094685;28;20184;-79
2022/08/12 10:46:15;;;;;;;0.60;0.60;;;28.50;50.60;;;;;;5094605;28;20193;-79
2022/08/12 10:48:44;;;;;;;0.80;0.80;;;28.70;49.50;;;;;;5094483;28;20200;-78
2022/08/12 10:51:11;;;;;;;1.27;0.70;;;28.80;49.00;;;;;;5094405;28;20221;-78
2022/08/12 10:53:38;;;;;;;1.00;0.85;;;28.70;49.80;;;;;;5094118;28;20697;-79
2022/08/12 10:56:07;;;;;;;0.68;0.68;;;28.70;48.60;;;;;;5094420;28;20616;-79
2022/08/12 10:58:35;;;;;;;0.60;0.57;;;28.70;48.90;;;;;;5094070;28;20196;-79
2022/08/12 11:01:04;;;;;;;1.02;0.65;;;28.70;49.10;;;;;;5093926;28;20228;-78
2022/08/12 11:03:35;;;;;;;0.50;0.50;;;28.40;48.90;;;;;;5094227;28;20205;-79
2022/08/12 11:06:03;;;;;;;0.57;0.57;;;28.50;48.20;;;;;;5094254;28;20266;-79
2022/08/12 11:08:30;;;;;;;0.50;0.50;;;28.70;47.00;;;;;;5093844;28;20207;-79
2022/08/12 11:10:57;;;;;;;0.60;0.60;;;28.70;47.40;;;;;;5093547;28;20229;-79
2022/08/12 11:13:23;;;;;;;0.70;0.70;;;28.90;47.80;;;;;;5094074;28;20208;-79
2022/08/12 11:15:54;;;;;;;0.70;0.70;;;28.80;47.90;;;;;;5094039;28;20201;-79
2022/08/12 11:18:22;;;;;;;0.50;0.50;;;28.80;48.10;;;;;;5094003;28;20191;-79
2022/08/12 11:20:50;;;;;;;1.17;0.70;;;28.80;49.30;;;;;;5093887;28;20252;-80
2022/08/12 11:23:17;;;;;;;0.60;0.60;;;28.60;47.80;;;;;;5093930;28;20206;-79
2022/08/12 11:25:44;;;;;;;0.85;0.60;;;28.50;49.40;;;;;;5093881;28;20201;-80
2022/08/12 11:28:11;;;;;;;1.05;0.70;;;28.60;48.90;;;;;;5093848;28;20228;-79
2022/08/12 11:30:38;;;;;;;0.80;0.80;;;28.70;48.60;;;;;;5093661;28;20235;-79
2022/08/12 11:33:05;;;;;;;0.77;0.77;;;28.60;49.40;;;;;;5093784;28;20201;-79
2022/08/12 11:35:35;;;;;;;0.70;0.70;;;28.60;48.10;;;;;;5093774;28;20197;-79
2022/08/12 11:38:02;;;;;;;0.95;0.77;;;28.50;48.30;;;;;;5093727;28;20205;-79
2022/08/12 11:40:29;;;;;;;0.60;0.60;;;28.30;47.90;;;;;;5093311;28;20243;-79
2022/08/12 11:42:56;;;;;;;0.73;0.70;;;28.00;48.50;;;;;;5093653;28;20208;-79
2022/08/12 11:45:23;;;;;;;0.82;0.82;;;27.60;49.20;;;;;;5093645;28;20205;-79
2022/08/12 11:47:50;;;;;;;0.80;0.70;;;27.50;49.70;;;;;;5093299;28;20209;-78
2022/08/12 11:50:19;;;;;;;0.65;0.60;;;27.50;50.00;;;;;;5093455;28;20224;-79
2022/08/12 11:52:47;;;;;;;1.30;0.80;;;27.50;50.30;;;;;;5093510;28;20258;-78
2022/08/12 11:55:14;;;;;;;0.70;0.70;;;27.60;49.60;;;;;;5093221;28;20209;-78
2022/08/12 11:57:49;;;;;;;1.00;0.60;;;27.60;49.80;;;;;;5093522;28;20259;-78
2022/08/12 12:00:16;;;;;;;0.70;0.70;;;27.60;49.70;;;;;;5093396;28;20221;-78
2022/08/12 12:02:43;;;;;;;0.60;0.60;;;27.70;50.10;;;;;;5093490;28;20230;-79
2022/08/12 12:05:10;;;;;;;0.40;0.40;;;27.70;49.40;;;;;;5093131;28;20205;-79
2022/08/12 12:07:39;;;;;;;1.00;0.70;;;27.60;49.30;;;;;;5093096;28;20197;-79
2022/08/12 12:10:08;;;;;;;1.40;0.80;;;27.70;49.90;;;;;;5094434;28;20237;-79
2022/08/12 12:12:35;;;;;;;1.05;0.70;;;27.90;49.60;;;;;;5097567;28;20189;-79
2022/08/12 12:15:05;;;;;;;0.73;0.65;;;28.10;48.90;;;;;;5097224;28;20181;-79
2022/08/12 12:17:35;;;;;;;1.98;0.70;;;28.10;48.80;;;;;;5097435;28;20197;-79
2022/08/12 12:20:04;;;;;;;0.85;0.60;;;28.10;48.50;;;;;;5097317;28;20274;-78
2022/08/12 12:22:30;;;;;;;0.60;0.60;;;28.00;48.60;;;;;;5097365;28;20201;-79
2022/08/12 12:24:58;;;;;;;0.77;0.70;;;28.00;49.30;;;;;;5097338;28;20202;-79
2022/08/12 12:27:26;;;;;;;0.85;0.85;;;28.20;48.80;;;;;;5097300;28;20193;-79
2022/08/12 12:29:52;;;;;;;2.15;0.50;;;28.30;48.90;;;;;;5097080;28;20228;-79
2022/08/12 12:32:19;;;;;;;0.80;0.80;;;28.10;48.40;;;;;;5097159;28;20208;-79
2022/08/12 12:34:46;;;;;;;0.60;0.60;;;27.80;48.20;;;;;;5097140;28;20229;-79
2022/08/12 12:37:14;;;;;;;0.50;0.50;;;27.50;48.70;;;;;;5096744;28;20208;-79
2022/08/12 12:39:42;;;;;;;0.93;0.77;;;27.30;48.60;;;;;;5097048;28;20604;-79
2022/08/12 12:42:08;;;;;;;0.80;0.70;;;27.20;48.90;;;;;;5096904;28;20221;-78
2022/08/12 12:44:36;;;;;;;1.13;0.70;;;27.10;49.00;;;;;;5096917;28;20201;-78
2022/08/12 12:47:04;;;;;;;0.90;0.80;;;27.00;49.70;;;;;;5096575;28;20574;-79
2022/08/12 12:49:30;;;;;;;0.82;0.82;;;27.00;50.90;;;;;;5096756;28;20315;-78
2022/08/12 12:51:57;;;;;;;0.70;0.50;;;27.10;49.90;;;;;;5096739;28;20222;-78
2022/08/12 12:54:24;;;;;;;1.13;0.60;;;27.10;50.40;;;;;;5096408;28;20209;-78
2022/08/12 12:56:53;;;;;;;0.80;0.80;;;27.10;50.20;;;;;;5096762;28;20186;-79
2022/08/12 12:59:23;;;;;;;0.93;0.93;;;27.10;49.60;;;;;;5096635;28;20292;-79
2022/08/12 13:01:52;;;;;;;0.75;0.63;;;27.00;49.20;;;;;;5096244;28;20229;-79
2022/08/12 13:04:19;;;;;;;0.65;0.65;;;27.00;49.40;;;;;;5096246;28;20206;-78
2022/08/12 13:06:50;;;;;;;0.60;0.60;;;27.00;49.50;;;;;;5096164;28;20204;-78
2022/08/12 13:09:18;;;;;;;0.60;0.60;;;27.10;49.20;;;;;;5096088;28;20235;-78
2022/08/12 13:11:46;;;;;;;0.50;0.50;;;27.00;48.90;;;;;;5095890;28;20240;-78
2022/08/12 13:14:14;;;;;;;0.70;0.70;;;27.10;49.80;;;;;;5096390;28;20208;-78
2022/08/12 13:16:43;;;;;;;0.50;0.50;;;27.10;50.00;;;;;;5096310;28;20197;-78
2022/08/12 13:19:11;;;;;;;3.83;0.90;;;27.10;50.20;;;;;;5096260;28;20205;-78
2022/08/12 13:22:15;;;;;;;0.63;0.60;;;27.10;50.30;;;;;;5095660;28;20700;-79
2022/08/12 13:24:25;;;;;;;0.75;0.55;;;27.10;49.70;;;;;;5095701;28;20259;-79
2022/08/12 13:26:51;;;;;;;0.52;0.52;;;27.10;50.20;;;;;;5096116;28;20250;-79
2022/08/12 13:29:18;;;;;;;0.60;0.60;;;27.00;50.40;;;;;;5096059;28;20197;-79
2022/08/12 13:31:45;;;;;;;0.65;0.65;;;26.90;50.80;;;;;;5095891;28;20229;-79
2022/08/12 13:34:14;;;;;;;0.88;0.65;;;26.90;51.20;;;;;;5096563;28;20283;-79
2022/08/12 13:36:42;;;;;;;0.50;0.50;;;26.80;50.80;;;;;;5095906;28;20205;-79
2022/08/12 13:39:09;;;;;;;0.90;0.70;;;26.60;50.80;;;;;;5095575;28;20617;-78
2022/08/12 13:41:36;;;;;;;2.25;0.70;;;26.40;51.20;;;;;;5095786;28;20221;-78
2022/08/12 13:44:05;;;;;;;1.00;1.00;;;26.30;51.50;;;;;;5095804;28;20236;-80
2022/08/12 13:46:31;;;;;;;0.77;0.70;;;26.20;51.30;;;;;;5096543;28;20204;-78
2022/08/12 13:48:58;;;;;;;0.90;0.70;;;26.30;51.40;;;;;;5095749;28;20568;-79
2022/08/12 13:51:27;;;;;;;1.00;0.90;;;26.30;51.80;;;;;;5095140;28;20718;-78
2022/08/12 13:53:53;;;;;;;0.93;0.80;;;26.40;51.60;;;;;;5095609;28;20224;-78
2022/08/12 13:56:22;;;;;;;1.02;1.02;;;26.50;51.40;;;;;;5095546;28;20205;-78
2022/08/12 13:58:50;;;;;;;0.88;0.88;;;26.40;51.30;;;;;;5095229;28;20629;-78
2022/08/12 14:01:19;;;;;;;1.20;0.60;;;26.50;51.10;;;;;;5095412;28;20252;-78
2022/08/12 14:03:46;;;;;;;0.90;0.90;;;26.50;51.20;;;;;;5114836;28;20265;-78
2022/08/12 14:06:13;;;;;;;1.42;1.15;;;26.50;50.80;;;;;;5115742;28;20197;-77
2022/08/12 14:08:41;;;;;;;0.98;0.85;;;26.50;51.10;;;;;;5096175;28;20566;-78
2022/08/12 14:11:08;;;;;;;0.60;0.50;;;26.40;51.30;;;;;;5094784;28;20604;-78
2022/08/12 14:13:36;;;;;;;0.60;0.60;;;26.40;51.20;;;;;;5112780;28;20204;-78
2022/08/12 14:16:03;;;;;;;1.33;1.05;;;26.30;51.30;;;;;;5115583;28;20203;-78
2022/08/12 14:18:31;;;;;;;0.70;0.70;;;26.30;51.00;;;;;;5097392;28;20205;-78
2022/08/12 14:21:00;;;;;;;0.70;0.70;;;26.30;50.90;;;;;;5095025;28;20244;-78
2022/08/12 14:23:28;;;;;;;0.70;0.70;;;26.30;50.50;;;;;;5103056;28;20207;-78
2022/08/12 14:25:57;;;;;;;0.80;0.80;;;26.30;50.70;;;;;;5115327;28;20261;-78
2022/08/12 14:28:25;;;;;;;0.60;0.60;;;26.30;50.70;;;;;;5114953;28;20228;-78
2022/08/12 14:30:53;;;;;;;0.65;0.60;;;26.30;50.40;;;;;;5114817;28;20588;-77
2022/08/12 14:33:21;;;;;;;1.60;0.80;;;26.40;50.10;;;;;;5112850;28;20591;-77
2022/08/12 14:35:47;;;;;;;1.38;0.90;;;26.50;49.40;;;;;;5111729;28;20313;-77
2022/08/12 14:38:16;;;;;;;0.60;0.60;;;26.50;49.50;;;;;;5115113;28;20200;-78
2022/08/12 14:40:44;;;;;;;0.65;0.65;;;26.50;49.40;;;;;;5115016;28;20587;-78
2022/08/12 14:43:13;;;;;;;0.98;0.98;;;26.40;50.50;;;;;;5114996;28;20192;-78